sensor_id;sensor_type;location;lat;lon;timestamp;P1;durP1;ratioP1;P2;durP2;ratioP2
78143;SDS011;67394;52.522;13.622;2023-04-25T00:01:19;5.07;;;3.55;;
78143;SDS011;67394;52.522;13.622;2023-04-25T00:03:47;6.03;;;3.20;;
78143;SDS011;67394;52.522;13.622;2023-04-25T00:06:14;5.18;;;3.40;;
78143;SDS011;67394;52.522;13.622;2023-04-25T00:08:41;4.43;;;3.38;;
78143;SDS011;67394;52.522;13.622;2023-04-25T00:11:07;5.75;;;3.47;;
78143;SDS011;67394;52.522;13.622;2023-04-25T00:13:33;6.70;;;3.22;;
78143;SDS011;67394;52.522;13.622;2023-04-25T00:16:00;4.22;;;3.47;;
78143;SDS011;67394;52.522;13.622;2023-04-25T00:18:26;6.63;;;3.55;;
78143;SDS011;67394;52.522;13.622;2023-04-25T00:20:52;3.45;;;2.78;;
78143;SDS011;67394;52.522;13.622;2023-04-25T00:23:19;3.90;;;2.72;;
78143;SDS011;67394;52.522;13.622;2023-04-25T00:25:45;4.55;;;3.33;;
78143;SDS011;67394;52.522;13.622;2023-04-25T00:28:13;6.25;;;3.20;;
78143;SDS011;67394;52.522;13.622;2023-04-25T00:30:40;4.80;;;2.97;;
78143;SDS011;67394;52.522;13.622;2023-04-25T00:33:07;4.97;;;2.63;;
78143;SDS011;67394;52.522;13.622;2023-04-25T00:35:34;4.13;;;2.70;;
78143;SDS011;67394;52.522;13.622;2023-04-25T00:38:00;4.10;;;2.60;;
78143;SDS011;67394;52.522;13.622;2023-04-25T00:42:52;5.10;;;2.92;;
78143;SDS011;67394;52.522;13.622;2023-04-25T00:45:19;3.97;;;2.72;;
78143;SDS011;67394;52.522;13.622;2023-04-25T00:47:46;4.13;;;2.60;;
78143;SDS011;67394;52.522;13.622;2023-04-25T00:50:13;4.15;;;2.25;;
78143;SDS011;67394;52.522;13.622;2023-04-25T00:52:40;4.95;;;2.78;;
78143;SDS011;67394;52.522;13.622;2023-04-25T00:55:09;5.05;;;2.35;;
78143;SDS011;67394;52.522;13.622;2023-04-25T00:57:38;5.45;;;2.78;;
78143;SDS011;67394;52.522;13.622;2023-04-25T01:00:05;5.53;;;3.20;;
78143;SDS011;67394;52.522;13.622;2023-04-25T01:02:33;4.55;;;2.92;;
78143;SDS011;67394;52.522;13.622;2023-04-25T01:05:02;5.10;;;2.78;;
78143;SDS011;67394;52.522;13.622;2023-04-25T01:07:29;5.80;;;2.95;;
78143;SDS011;67394;52.522;13.622;2023-04-25T01:09:55;7.30;;;2.95;;
78143;SDS011;67394;52.522;13.622;2023-04-25T01:12:33;6.78;;;2.80;;
78143;SDS011;67394;52.522;13.622;2023-04-25T01:15:00;4.70;;;2.85;;
78143;SDS011;67394;52.522;13.622;2023-04-25T01:17:26;3.42;;;2.45;;
78143;SDS011;67394;52.522;13.622;2023-04-25T01:19:53;6.50;;;3.20;;
78143;SDS011;67394;52.522;13.622;2023-04-25T01:22:20;4.20;;;2.63;;
78143;SDS011;67394;52.522;13.622;2023-04-25T01:24:46;4.68;;;2.60;;
78143;SDS011;67394;52.522;13.622;2023-04-25T01:27:13;5.47;;;2.55;;
78143;SDS011;67394;52.522;13.622;2023-04-25T01:29:39;5.07;;;3.03;;
78143;SDS011;67394;52.522;13.622;2023-04-25T01:32:06;6.80;;;2.85;;
78143;SDS011;67394;52.522;13.622;2023-04-25T01:34:33;5.07;;;2.60;;
78143;SDS011;67394;52.522;13.622;2023-04-25T01:37:00;5.47;;;2.88;;
78143;SDS011;67394;52.522;13.622;2023-04-25T01:41:51;6.18;;;3.10;;
78143;SDS011;67394;52.522;13.622;2023-04-25T01:44:18;6.88;;;2.70;;
78143;SDS011;67394;52.522;13.622;2023-04-25T01:46:44;4.60;;;2.40;;
78143;SDS011;67394;52.522;13.622;2023-04-25T01:49:11;4.28;;;2.85;;
78143;SDS011;67394;52.522;13.622;2023-04-25T01:51:37;6.85;;;3.00;;
78143;SDS011;67394;52.522;13.622;2023-04-25T01:54:04;4.53;;;2.40;;
78143;SDS011;67394;52.522;13.622;2023-04-25T01:56:30;7.38;;;3.13;;
78143;SDS011;67394;52.522;13.622;2023-04-25T02:01:24;6.28;;;2.88;;
78143;SDS011;67394;52.522;13.622;2023-04-25T02:03:51;5.57;;;3.20;;
78143;SDS011;67394;52.522;13.622;2023-04-25T02:06:18;6.10;;;3.10;;
78143;SDS011;67394;52.522;13.622;2023-04-25T02:08:44;6.30;;;2.97;;
78143;SDS011;67394;52.522;13.622;2023-04-25T02:11:10;6.75;;;2.95;;
78143;SDS011;67394;52.522;13.622;2023-04-25T02:13:37;7.00;;;2.75;;
78143;SDS011;67394;52.522;13.622;2023-04-25T02:16:03;6.38;;;3.13;;
78143;SDS011;67394;52.522;13.622;2023-04-25T02:18:30;10.52;;;3.55;;
78143;SDS011;67394;52.522;13.622;2023-04-25T02:20:57;8.50;;;3.80;;
78143;SDS011;67394;52.522;13.622;2023-04-25T02:23:21;6.97;;;4.40;;
78143;SDS011;67394;52.522;13.622;2023-04-25T02:25:48;8.82;;;5.22;;
78143;SDS011;67394;52.522;13.622;2023-04-25T02:28:15;9.25;;;3.95;;
78143;SDS011;67394;52.522;13.622;2023-04-25T02:30:41;7.65;;;4.03;;
78143;SDS011;67394;52.522;13.622;2023-04-25T02:33:07;7.75;;;4.10;;
78143;SDS011;67394;52.522;13.622;2023-04-25T02:35:34;6.82;;;4.53;;
78143;SDS011;67394;52.522;13.622;2023-04-25T02:38:00;7.43;;;3.45;;
78143;SDS011;67394;52.522;13.622;2023-04-25T02:42:51;6.25;;;3.63;;
78143;SDS011;67394;52.522;13.622;2023-04-25T02:45:18;8.18;;;3.30;;
78143;SDS011;67394;52.522;13.622;2023-04-25T02:47:44;7.75;;;3.50;;
78143;SDS011;67394;52.522;13.622;2023-04-25T02:50:10;9.00;;;3.90;;
78143;SDS011;67394;52.522;13.622;2023-04-25T02:52:37;6.20;;;3.70;;
78143;SDS011;67394;52.522;13.622;2023-04-25T02:55:03;5.30;;;3.70;;
78143;SDS011;67394;52.522;13.622;2023-04-25T02:57:30;6.88;;;3.70;;
78143;SDS011;67394;52.522;13.622;2023-04-25T02:59:56;5.72;;;3.65;;
78143;SDS011;67394;52.522;13.622;2023-04-25T03:02:33;4.93;;;3.40;;
78143;SDS011;67394;52.522;13.622;2023-04-25T03:04:59;5.63;;;3.38;;
78143;SDS011;67394;52.522;13.622;2023-04-25T03:07:26;6.03;;;3.17;;
78143;SDS011;67394;52.522;13.622;2023-04-25T03:10:06;5.60;;;3.22;;
78143;SDS011;67394;52.522;13.622;2023-04-25T03:12:33;7.25;;;3.50;;
78143;SDS011;67394;52.522;13.622;2023-04-25T03:14:59;7.38;;;4.05;;
78143;SDS011;67394;52.522;13.622;2023-04-25T03:17:26;5.97;;;3.75;;
78143;SDS011;67394;52.522;13.622;2023-04-25T03:19:52;6.32;;;3.92;;
78143;SDS011;67394;52.522;13.622;2023-04-25T03:22:18;7.25;;;3.55;;
78143;SDS011;67394;52.522;13.622;2023-04-25T03:24:45;6.65;;;3.63;;
78143;SDS011;67394;52.522;13.622;2023-04-25T03:27:11;5.75;;;3.72;;
78143;SDS011;67394;52.522;13.622;2023-04-25T03:29:37;5.90;;;3.42;;
78143;SDS011;67394;52.522;13.622;2023-04-25T03:32:04;6.15;;;3.65;;
78143;SDS011;67394;52.522;13.622;2023-04-25T03:34:30;7.40;;;3.38;;
78143;SDS011;67394;52.522;13.622;2023-04-25T03:39:22;4.95;;;3.58;;
78143;SDS011;67394;52.522;13.622;2023-04-25T03:41:48;6.65;;;3.78;;
78143;SDS011;67394;52.522;13.622;2023-04-25T03:44:14;8.20;;;3.63;;
78143;SDS011;67394;52.522;13.622;2023-04-25T03:46:41;7.40;;;3.78;;
78143;SDS011;67394;52.522;13.622;2023-04-25T03:49:07;6.65;;;3.72;;
78143;SDS011;67394;52.522;13.622;2023-04-25T03:51:33;6.28;;;3.70;;
78143;SDS011;67394;52.522;13.622;2023-04-25T03:58:52;9.25;;;4.10;;
78143;SDS011;67394;52.522;13.622;2023-04-25T04:01:18;6.55;;;3.95;;
78143;SDS011;67394;52.522;13.622;2023-04-25T04:03:45;7.28;;;3.67;;
78143;SDS011;67394;52.522;13.622;2023-04-25T04:06:11;5.93;;;3.85;;
78143;SDS011;67394;52.522;13.622;2023-04-25T04:08:38;7.18;;;3.85;;
78143;SDS011;67394;52.522;13.622;2023-04-25T04:11:04;6.72;;;3.55;;
78143;SDS011;67394;52.522;13.622;2023-04-25T04:13:30;5.97;;;3.70;;
78143;SDS011;67394;52.522;13.622;2023-04-25T04:18:27;7.50;;;4.10;;
78143;SDS011;67394;52.522;13.622;2023-04-25T04:20:54;8.63;;;4.53;;
78143;SDS011;67394;52.522;13.622;2023-04-25T04:23:20;6.40;;;3.55;;
78143;SDS011;67394;52.522;13.622;2023-04-25T04:25:46;5.80;;;3.80;;
78143;SDS011;67394;52.522;13.622;2023-04-25T04:28:13;8.15;;;3.97;;
78143;SDS011;67394;52.522;13.622;2023-04-25T04:30:39;7.10;;;3.35;;
78143;SDS011;67394;52.522;13.622;2023-04-25T04:33:05;9.15;;;3.25;;
78143;SDS011;67394;52.522;13.622;2023-04-25T04:35:32;5.78;;;3.60;;
78143;SDS011;67394;52.522;13.622;2023-04-25T04:37:59;17.20;;;8.43;;
78143;SDS011;67394;52.522;13.622;2023-04-25T04:40:25;8.25;;;3.95;;
78143;SDS011;67394;52.522;13.622;2023-04-25T04:42:52;6.38;;;3.58;;
78143;SDS011;67394;52.522;13.622;2023-04-25T04:45:18;8.40;;;3.70;;
78143;SDS011;67394;52.522;13.622;2023-04-25T04:47:44;7.75;;;3.88;;
78143;SDS011;67394;52.522;13.622;2023-04-25T04:50:11;6.97;;;3.55;;
78143;SDS011;67394;52.522;13.622;2023-04-25T04:52:37;5.85;;;3.60;;
78143;SDS011;67394;52.522;13.622;2023-04-25T04:55:04;7.10;;;3.38;;
78143;SDS011;67394;52.522;13.622;2023-04-25T04:57:32;9.82;;;3.60;;
78143;SDS011;67394;52.522;13.622;2023-04-25T05:00:01;7.22;;;3.92;;
78143;SDS011;67394;52.522;13.622;2023-04-25T05:02:28;9.88;;;3.63;;
78143;SDS011;67394;52.522;13.622;2023-04-25T05:04:55;6.65;;;3.45;;
78143;SDS011;67394;52.522;13.622;2023-04-25T05:07:22;9.43;;;4.05;;
78143;SDS011;67394;52.522;13.622;2023-04-25T05:09:48;7.78;;;3.70;;
78143;SDS011;67394;52.522;13.622;2023-04-25T05:12:14;4.88;;;3.28;;
78143;SDS011;67394;52.522;13.622;2023-04-25T05:14:40;6.75;;;3.40;;
78143;SDS011;67394;52.522;13.622;2023-04-25T05:17:07;7.65;;;3.35;;
78143;SDS011;67394;52.522;13.622;2023-04-25T05:19:33;6.32;;;3.45;;
78143;SDS011;67394;52.522;13.622;2023-04-25T05:22:00;5.15;;;3.50;;
78143;SDS011;67394;52.522;13.622;2023-04-25T05:26:55;5.70;;;3.13;;
78143;SDS011;67394;52.522;13.622;2023-04-25T05:29:21;7.35;;;3.33;;
78143;SDS011;67394;52.522;13.622;2023-04-25T05:31:48;9.45;;;4.47;;
78143;SDS011;67394;52.522;13.622;2023-04-25T05:34:14;14.10;;;7.95;;
78143;SDS011;67394;52.522;13.622;2023-04-25T05:36:41;8.00;;;5.03;;
78143;SDS011;67394;52.522;13.622;2023-04-25T05:39:07;8.82;;;4.03;;
78143;SDS011;67394;52.522;13.622;2023-04-25T05:41:33;7.57;;;4.10;;
78143;SDS011;67394;52.522;13.622;2023-04-25T05:43:59;6.45;;;4.18;;
78143;SDS011;67394;52.522;13.622;2023-04-25T05:46:26;7.07;;;3.78;;
78143;SDS011;67394;52.522;13.622;2023-04-25T05:49:03;7.55;;;4.03;;
78143;SDS011;67394;52.522;13.622;2023-04-25T05:51:30;6.28;;;3.80;;
78143;SDS011;67394;52.522;13.622;2023-04-25T05:53:56;5.65;;;3.55;;
78143;SDS011;67394;52.522;13.622;2023-04-25T05:56:33;6.15;;;4.57;;
78143;SDS011;67394;52.522;13.622;2023-04-25T05:59:00;6.70;;;4.93;;
78143;SDS011;67394;52.522;13.622;2023-04-25T06:01:26;7.03;;;4.53;;
78143;SDS011;67394;52.522;13.622;2023-04-25T06:04:03;7.05;;;4.43;;
78143;SDS011;67394;52.522;13.622;2023-04-25T06:06:30;8.70;;;3.97;;
78143;SDS011;67394;52.522;13.622;2023-04-25T06:08:56;6.55;;;4.22;;
78143;SDS011;67394;52.522;13.622;2023-04-25T06:11:22;13.57;;;3.50;;
78143;SDS011;67394;52.522;13.622;2023-04-25T06:13:48;8.57;;;4.53;;
78143;SDS011;67394;52.522;13.622;2023-04-25T06:16:15;8.57;;;4.22;;
78143;SDS011;67394;52.522;13.622;2023-04-25T06:18:41;6.65;;;4.57;;
78143;SDS011;67394;52.522;13.622;2023-04-25T06:21:09;7.22;;;4.22;;
78143;SDS011;67394;52.522;13.622;2023-04-25T06:23:35;7.80;;;5.07;;
78143;SDS011;67394;52.522;13.622;2023-04-25T06:26:02;6.95;;;4.38;;
78143;SDS011;67394;52.522;13.622;2023-04-25T06:28:28;9.55;;;5.13;;
78143;SDS011;67394;52.522;13.622;2023-04-25T06:30:54;9.35;;;4.63;;
78143;SDS011;67394;52.522;13.622;2023-04-25T06:33:21;7.82;;;4.68;;
78143;SDS011;67394;52.522;13.622;2023-04-25T06:35:47;8.98;;;4.88;;
78143;SDS011;67394;52.522;13.622;2023-04-25T06:38:14;7.13;;;4.65;;
78143;SDS011;67394;52.522;13.622;2023-04-25T06:40:41;7.13;;;4.53;;
78143;SDS011;67394;52.522;13.622;2023-04-25T06:43:07;7.65;;;4.60;;
78143;SDS011;67394;52.522;13.622;2023-04-25T06:45:33;14.48;;;5.28;;
78143;SDS011;67394;52.522;13.622;2023-04-25T06:48:00;9.52;;;5.03;;
78143;SDS011;67394;52.522;13.622;2023-04-25T06:50:26;8.10;;;4.70;;
78143;SDS011;67394;52.522;13.622;2023-04-25T06:52:52;10.65;;;5.43;;
78143;SDS011;67394;52.522;13.622;2023-04-25T06:55:19;7.80;;;4.60;;
78143;SDS011;67394;52.522;13.622;2023-04-25T06:57:45;9.27;;;4.82;;
78143;SDS011;67394;52.522;13.622;2023-04-25T07:00:12;9.45;;;5.18;;
78143;SDS011;67394;52.522;13.622;2023-04-25T07:02:39;7.18;;;4.57;;
78143;SDS011;67394;52.522;13.622;2023-04-25T07:05:05;7.22;;;4.25;;
78143;SDS011;67394;52.522;13.622;2023-04-25T07:07:32;9.38;;;4.65;;
78143;SDS011;67394;52.522;13.622;2023-04-25T07:12:26;6.13;;;4.32;;
78143;SDS011;67394;52.522;13.622;2023-04-25T07:14:52;8.25;;;4.30;;
78143;SDS011;67394;52.522;13.622;2023-04-25T07:17:19;8.45;;;4.85;;
78143;SDS011;67394;52.522;13.622;2023-04-25T07:19:45;9.27;;;4.78;;
78143;SDS011;67394;52.522;13.622;2023-04-25T07:22:11;7.80;;;4.28;;
78143;SDS011;67394;52.522;13.622;2023-04-25T07:24:38;6.35;;;4.25;;
78143;SDS011;67394;52.522;13.622;2023-04-25T07:27:05;8.30;;;4.22;;
78143;SDS011;67394;52.522;13.622;2023-04-25T07:29:31;6.35;;;4.55;;
78143;SDS011;67394;52.522;13.622;2023-04-25T07:34:23;6.63;;;3.88;;
78143;SDS011;67394;52.522;13.622;2023-04-25T07:36:49;5.50;;;3.63;;
78143;SDS011;67394;52.522;13.622;2023-04-25T07:39:15;6.72;;;3.78;;
78143;SDS011;67394;52.522;13.622;2023-04-25T07:41:42;10.20;;;4.75;;
78143;SDS011;67394;52.522;13.622;2023-04-25T07:44:08;8.00;;;4.15;;
78143;SDS011;67394;52.522;13.622;2023-04-25T07:46:34;7.93;;;4.78;;
78143;SDS011;67394;52.522;13.622;2023-04-25T07:49:01;10.45;;;4.78;;
78143;SDS011;67394;52.522;13.622;2023-04-25T07:51:27;8.88;;;4.32;;
78143;SDS011;67394;52.522;13.622;2023-04-25T07:53:53;8.93;;;4.43;;
78143;SDS011;67394;52.522;13.622;2023-04-25T07:56:20;5.10;;;3.70;;
78143;SDS011;67394;52.522;13.622;2023-04-25T07:58:46;8.77;;;4.63;;
78143;SDS011;67394;52.522;13.622;2023-04-25T08:01:12;7.70;;;3.83;;
78143;SDS011;67394;52.522;13.622;2023-04-25T08:03:39;9.00;;;4.13;;
78143;SDS011;67394;52.522;13.622;2023-04-25T08:06:05;11.80;;;3.55;;
78143;SDS011;67394;52.522;13.622;2023-04-25T08:08:33;9.65;;;3.75;;
78143;SDS011;67394;52.522;13.622;2023-04-25T08:11:00;8.63;;;3.75;;
78143;SDS011;67394;52.522;13.622;2023-04-25T08:13:26;10.10;;;3.60;;
78143;SDS011;67394;52.522;13.622;2023-04-25T08:15:53;11.40;;;3.80;;
78143;SDS011;67394;52.522;13.622;2023-04-25T08:18:19;8.00;;;3.63;;
78143;SDS011;67394;52.522;13.622;2023-04-25T08:20:46;9.00;;;3.65;;
78143;SDS011;67394;52.522;13.622;2023-04-25T08:23:12;6.95;;;2.95;;
78143;SDS011;67394;52.522;13.622;2023-04-25T08:25:38;10.27;;;3.40;;
78143;SDS011;67394;52.522;13.622;2023-04-25T08:28:05;7.72;;;3.13;;
78143;SDS011;67394;52.522;13.622;2023-04-25T08:30:31;9.80;;;3.35;;
78143;SDS011;67394;52.522;13.622;2023-04-25T08:35:27;10.75;;;3.40;;
78143;SDS011;67394;52.522;13.622;2023-04-25T08:37:53;12.32;;;3.92;;
78143;SDS011;67394;52.522;13.622;2023-04-25T08:40:22;7.45;;;2.97;;
78143;SDS011;67394;52.522;13.622;2023-04-25T08:42:49;10.20;;;3.92;;
78143;SDS011;67394;52.522;13.622;2023-04-25T08:45:16;6.50;;;3.10;;
78143;SDS011;67394;52.522;13.622;2023-04-25T08:47:43;12.63;;;3.47;;
78143;SDS011;67394;52.522;13.622;2023-04-25T08:50:11;8.52;;;3.13;;
78143;SDS011;67394;52.522;13.622;2023-04-25T08:52:41;8.65;;;3.67;;
78143;SDS011;67394;52.522;13.622;2023-04-25T08:55:11;9.73;;;3.40;;
78143;SDS011;67394;52.522;13.622;2023-04-25T08:57:39;11.32;;;3.45;;
78143;SDS011;67394;52.522;13.622;2023-04-25T09:00:08;9.40;;;3.40;;
78143;SDS011;67394;52.522;13.622;2023-04-25T09:02:36;8.55;;;2.90;;
78143;SDS011;67394;52.522;13.622;2023-04-25T09:05:03;11.57;;;3.50;;
78143;SDS011;67394;52.522;13.622;2023-04-25T09:07:29;7.47;;;3.00;;
78143;SDS011;67394;52.522;13.622;2023-04-25T09:09:56;9.48;;;3.00;;
78143;SDS011;67394;52.522;13.622;2023-04-25T09:12:22;7.05;;;3.15;;
78143;SDS011;67394;52.522;13.622;2023-04-25T09:15:07;8.93;;;3.35;;
78143;SDS011;67394;52.522;13.622;2023-04-25T09:17:35;8.13;;;3.13;;
78143;SDS011;67394;52.522;13.622;2023-04-25T09:20:08;9.77;;;2.88;;
78143;SDS011;67394;52.522;13.622;2023-04-25T09:22:36;7.93;;;3.15;;
78143;SDS011;67394;52.522;13.622;2023-04-25T09:27:34;7.13;;;2.40;;
78143;SDS011;67394;52.522;13.622;2023-04-25T09:30:00;8.07;;;3.45;;
78143;SDS011;67394;52.522;13.622;2023-04-25T09:32:26;6.25;;;1.92;;
78143;SDS011;67394;52.522;13.622;2023-04-25T09:34:56;9.48;;;2.50;;
78143;SDS011;67394;52.522;13.622;2023-04-25T09:39:53;4.68;;;2.28;;
78143;SDS011;67394;52.522;13.622;2023-04-25T09:42:22;6.90;;;2.47;;
78143;SDS011;67394;52.522;13.622;2023-04-25T09:44:51;6.22;;;2.55;;
78143;SDS011;67394;52.522;13.622;2023-04-25T09:47:18;6.65;;;2.63;;
78143;SDS011;67394;52.522;13.622;2023-04-25T09:49:45;6.03;;;2.45;;
78143;SDS011;67394;52.522;13.622;2023-04-25T09:52:15;6.97;;;2.40;;
78143;SDS011;67394;52.522;13.622;2023-04-25T09:54:49;8.70;;;2.75;;
78143;SDS011;67394;52.522;13.622;2023-04-25T09:57:17;7.20;;;2.50;;
78143;SDS011;67394;52.522;13.622;2023-04-25T09:59:47;7.60;;;2.72;;
78143;SDS011;67394;52.522;13.622;2023-04-25T10:02:26;5.60;;;2.85;;
78143;SDS011;67394;52.522;13.622;2023-04-25T10:04:54;8.15;;;2.90;;
78143;SDS011;67394;52.522;13.622;2023-04-25T10:07:23;6.63;;;2.38;;
78143;SDS011;67394;52.522;13.622;2023-04-25T10:09:50;6.18;;;2.33;;
78143;SDS011;67394;52.522;13.622;2023-04-25T10:12:22;8.20;;;2.38;;
78143;SDS011;67394;52.522;13.622;2023-04-25T10:14:49;5.15;;;2.55;;
78143;SDS011;67394;52.522;13.622;2023-04-25T10:17:15;7.75;;;2.30;;
78143;SDS011;67394;52.522;13.622;2023-04-25T10:19:43;5.88;;;2.05;;
78143;SDS011;67394;52.522;13.622;2023-04-25T10:25:01;7.80;;;3.03;;
78143;SDS011;67394;52.522;13.622;2023-04-25T10:27:28;7.50;;;3.00;;
78143;SDS011;67394;52.522;13.622;2023-04-25T10:30:02;7.53;;;2.60;;
78143;SDS011;67394;52.522;13.622;2023-04-25T10:32:30;5.40;;;2.22;;
78143;SDS011;67394;52.522;13.622;2023-04-25T10:34:57;4.50;;;2.35;;
78143;SDS011;67394;52.522;13.622;2023-04-25T10:37:24;4.82;;;2.05;;
78143;SDS011;67394;52.522;13.622;2023-04-25T10:39:50;7.85;;;2.22;;
78143;SDS011;67394;52.522;13.622;2023-04-25T10:42:16;4.75;;;2.35;;
78143;SDS011;67394;52.522;13.622;2023-04-25T10:44:47;4.68;;;2.10;;
78143;SDS011;67394;52.522;13.622;2023-04-25T10:49:55;5.30;;;1.92;;
78143;SDS011;67394;52.522;13.622;2023-04-25T10:52:32;7.00;;;2.20;;
78143;SDS011;67394;52.522;13.622;2023-04-25T10:54:58;4.80;;;1.98;;
78143;SDS011;67394;52.522;13.622;2023-04-25T11:02:36;11.30;;;2.75;;
78143;SDS011;67394;52.522;13.622;2023-04-25T11:05:03;6.78;;;2.17;;
78143;SDS011;67394;52.522;13.622;2023-04-25T11:07:34;6.20;;;2.25;;
78143;SDS011;67394;52.522;13.622;2023-04-25T11:10:05;6.93;;;2.17;;
78143;SDS011;67394;52.522;13.622;2023-04-25T11:12:32;6.05;;;2.25;;
78143;SDS011;67394;52.522;13.622;2023-04-25T11:14:59;5.55;;;2.42;;
78143;SDS011;67394;52.522;13.622;2023-04-25T11:17:29;8.00;;;2.78;;
78143;SDS011;67394;52.522;13.622;2023-04-25T11:19:56;7.13;;;2.50;;
78143;SDS011;67394;52.522;13.622;2023-04-25T11:22:23;8.93;;;2.40;;
78143;SDS011;67394;52.522;13.622;2023-04-25T11:24:49;5.90;;;2.38;;
78143;SDS011;67394;52.522;13.622;2023-04-25T11:27:16;8.57;;;2.83;;
78143;SDS011;67394;52.522;13.622;2023-04-25T11:29:42;5.55;;;2.25;;
78143;SDS011;67394;52.522;13.622;2023-04-25T11:32:08;8.05;;;2.40;;
78143;SDS011;67394;52.522;13.622;2023-04-25T11:34:35;7.28;;;2.38;;
78143;SDS011;67394;52.522;13.622;2023-04-25T11:37:02;3.75;;;1.85;;
78143;SDS011;67394;52.522;13.622;2023-04-25T11:39:29;6.75;;;2.38;;
78143;SDS011;67394;52.522;13.622;2023-04-25T11:41:55;7.15;;;2.30;;
78143;SDS011;67394;52.522;13.622;2023-04-25T11:44:22;6.35;;;2.00;;
78143;SDS011;67394;52.522;13.622;2023-04-25T11:46:48;7.90;;;2.35;;
78143;SDS011;67394;52.522;13.622;2023-04-25T11:49:15;6.20;;;1.88;;
78143;SDS011;67394;52.522;13.622;2023-04-25T11:51:42;8.75;;;2.25;;
78143;SDS011;67394;52.522;13.622;2023-04-25T11:54:10;8.93;;;2.53;;
78143;SDS011;67394;52.522;13.622;2023-04-25T11:56:40;6.50;;;2.63;;
78143;SDS011;67394;52.522;13.622;2023-04-25T11:59:07;6.28;;;2.20;;
78143;SDS011;67394;52.522;13.622;2023-04-25T12:01:38;3.47;;;1.60;;
78143;SDS011;67394;52.522;13.622;2023-04-25T12:06:44;5.00;;;2.20;;
78143;SDS011;67394;52.522;13.622;2023-04-25T12:09:12;2.75;;;1.60;;
78143;SDS011;67394;52.522;13.622;2023-04-25T12:11:45;5.28;;;2.25;;
78143;SDS011;67394;52.522;13.622;2023-04-25T12:14:26;3.05;;;1.75;;
78143;SDS011;67394;52.522;13.622;2023-04-25T12:16:55;4.68;;;1.95;;
78143;SDS011;67394;52.522;13.622;2023-04-25T12:19:22;9.35;;;2.22;;
78143;SDS011;67394;52.522;13.622;2023-04-25T12:21:49;4.13;;;1.80;;
78143;SDS011;67394;52.522;13.622;2023-04-25T12:24:23;5.55;;;2.28;;
78143;SDS011;67394;52.522;13.622;2023-04-25T12:26:52;5.30;;;2.30;;
78143;SDS011;67394;52.522;13.622;2023-04-25T12:29:26;4.68;;;2.03;;
78143;SDS011;67394;52.522;13.622;2023-04-25T12:31:53;6.05;;;1.98;;
78143;SDS011;67394;52.522;13.622;2023-04-25T12:34:21;5.20;;;2.20;;
78143;SDS011;67394;52.522;13.622;2023-04-25T12:36:49;5.10;;;2.10;;
78143;SDS011;67394;52.522;13.622;2023-04-25T12:39:16;6.30;;;2.08;;
78143;SDS011;67394;52.522;13.622;2023-04-25T12:41:47;5.70;;;2.30;;
78143;SDS011;67394;52.522;13.622;2023-04-25T12:44:13;7.82;;;2.35;;
78143;SDS011;67394;52.522;13.622;2023-04-25T12:46:40;8.15;;;2.38;;
78143;SDS011;67394;52.522;13.622;2023-04-25T12:49:07;6.40;;;2.60;;
78143;SDS011;67394;52.522;13.622;2023-04-25T12:51:44;3.15;;;2.00;;
78143;SDS011;67394;52.522;13.622;2023-04-25T12:54:10;4.93;;;1.77;;
78143;SDS011;67394;52.522;13.622;2023-04-25T12:56:37;3.88;;;1.85;;
78143;SDS011;67394;52.522;13.622;2023-04-25T12:59:03;4.90;;;2.00;;
78143;SDS011;67394;52.522;13.622;2023-04-25T13:01:29;6.22;;;2.22;;
78143;SDS011;67394;52.522;13.622;2023-04-25T13:03:56;3.90;;;2.05;;
78143;SDS011;67394;52.522;13.622;2023-04-25T13:06:22;3.75;;;1.75;;
78143;SDS011;67394;52.522;13.622;2023-04-25T13:08:49;11.05;;;4.95;;
78143;SDS011;67394;52.522;13.622;2023-04-25T13:11:16;10.52;;;5.85;;
78143;SDS011;67394;52.522;13.622;2023-04-25T13:13:42;9.43;;;2.35;;
78143;SDS011;67394;52.522;13.622;2023-04-25T13:16:09;4.78;;;2.13;;
78143;SDS011;67394;52.522;13.622;2023-04-25T13:18:36;6.95;;;4.10;;
78143;SDS011;67394;52.522;13.622;2023-04-25T13:21:03;5.25;;;1.80;;
78143;SDS011;67394;52.522;13.622;2023-04-25T13:23:29;3.70;;;1.88;;
78143;SDS011;67394;52.522;13.622;2023-04-25T13:25:56;11.55;;;4.68;;
78143;SDS011;67394;52.522;13.622;2023-04-25T13:28:22;8.55;;;4.82;;
78143;SDS011;67394;52.522;13.622;2023-04-25T13:30:49;12.30;;;5.50;;
78143;SDS011;67394;52.522;13.622;2023-04-25T13:33:16;3.33;;;1.60;;
78143;SDS011;67394;52.522;13.622;2023-04-25T13:35:42;4.30;;;1.52;;
78143;SDS011;67394;52.522;13.622;2023-04-25T13:38:08;5.38;;;2.10;;
78143;SDS011;67394;52.522;13.622;2023-04-25T13:40:35;2.63;;;1.50;;
78143;SDS011;67394;52.522;13.622;2023-04-25T13:43:01;2.80;;;1.42;;
78143;SDS011;67394;52.522;13.622;2023-04-25T13:45:28;4.53;;;1.75;;
78143;SDS011;67394;52.522;13.622;2023-04-25T13:47:57;3.45;;;1.88;;
78143;SDS011;67394;52.522;13.622;2023-04-25T13:50:23;4.68;;;1.50;;
78143;SDS011;67394;52.522;13.622;2023-04-25T13:52:50;4.50;;;1.85;;
78143;SDS011;67394;52.522;13.622;2023-04-25T13:55:16;6.65;;;1.90;;
78143;SDS011;67394;52.522;13.622;2023-04-25T13:57:43;4.88;;;2.13;;
78143;SDS011;67394;52.522;13.622;2023-04-25T14:00:09;4.53;;;1.80;;
78143;SDS011;67394;52.522;13.622;2023-04-25T14:02:36;6.85;;;1.98;;
78143;SDS011;67394;52.522;13.622;2023-04-25T14:05:03;8.50;;;2.20;;
78143;SDS011;67394;52.522;13.622;2023-04-25T14:07:30;6.22;;;2.80;;
78143;SDS011;67394;52.522;13.622;2023-04-25T14:09:57;12.85;;;5.05;;
78143;SDS011;67394;52.522;13.622;2023-04-25T14:12:23;13.38;;;5.30;;
78143;SDS011;67394;52.522;13.622;2023-04-25T14:14:50;4.25;;;2.10;;
78143;SDS011;67394;52.522;13.622;2023-04-25T14:17:16;6.00;;;2.65;;
78143;SDS011;67394;52.522;13.622;2023-04-25T14:19:42;6.10;;;2.40;;
78143;SDS011;67394;52.522;13.622;2023-04-25T14:22:09;4.80;;;2.45;;
78143;SDS011;67394;52.522;13.622;2023-04-25T14:24:35;4.57;;;1.80;;
78143;SDS011;67394;52.522;13.622;2023-04-25T14:27:01;4.00;;;1.60;;
78143;SDS011;67394;52.522;13.622;2023-04-25T14:31:55;4.82;;;1.58;;
78143;SDS011;67394;52.522;13.622;2023-04-25T14:34:21;6.13;;;1.90;;
78143;SDS011;67394;52.522;13.622;2023-04-25T14:36:48;4.35;;;1.95;;
78143;SDS011;67394;52.522;13.622;2023-04-25T14:39:14;4.63;;;1.80;;
78143;SDS011;67394;52.522;13.622;2023-04-25T14:41:40;5.10;;;2.10;;
78143;SDS011;67394;52.522;13.622;2023-04-25T14:44:07;5.10;;;2.17;;
78143;SDS011;67394;52.522;13.622;2023-04-25T14:46:33;5.10;;;1.63;;
78143;SDS011;67394;52.522;13.622;2023-04-25T14:49:00;7.00;;;2.12;;
78143;SDS011;67394;52.522;13.622;2023-04-25T14:51:27;5.55;;;1.85;;
78143;SDS011;67394;52.522;13.622;2023-04-25T14:53:53;5.35;;;1.58;;
78143;SDS011;67394;52.522;13.622;2023-04-25T14:56:20;6.95;;;2.20;;
78143;SDS011;67394;52.522;13.622;2023-04-25T14:58:46;5.20;;;1.90;;
78143;SDS011;67394;52.522;13.622;2023-04-25T15:01:13;7.10;;;1.75;;
78143;SDS011;67394;52.522;13.622;2023-04-25T15:03:40;2.70;;;1.55;;
78143;SDS011;67394;52.522;13.622;2023-04-25T15:06:06;3.50;;;1.60;;
78143;SDS011;67394;52.522;13.622;2023-04-25T15:08:33;7.38;;;1.70;;
78143;SDS011;67394;52.522;13.622;2023-04-25T15:10:59;4.97;;;1.58;;
78143;SDS011;67394;52.522;13.622;2023-04-25T15:13:26;3.78;;;1.63;;
78143;SDS011;67394;52.522;13.622;2023-04-25T15:15:52;4.72;;;1.83;;
78143;SDS011;67394;52.522;13.622;2023-04-25T15:18:22;4.68;;;1.70;;
78143;SDS011;67394;52.522;13.622;2023-04-25T15:20:49;4.28;;;1.70;;
78143;SDS011;67394;52.522;13.622;2023-04-25T15:23:17;5.93;;;1.85;;